Time;durP1;ratioP1;P1;durP2;ratioP2;P2;SDS_P1;SDS_P2;PMS_P1;PMS_P2;Temp;Humidity;BMP_temperature;BMP_pressure;BME280_temperature;BME280_humidity;BME280_pressure;Samples;Min_cycle;Max_cycle;Signal;HPM_P1;HPM_P2
2022/09/26 00:01:30;;;;;;;8.57;5.75;;;;;;;10.55;94.86;100907.34;5008347;28;20080;-66
2022/09/26 00:03:59;;;;;;;9.07;5.50;;;;;;;10.56;94.24;100904.38;5008900;28;20033;-67
2022/09/26 00:06:25;;;;;;;7.63;5.38;;;;;;;10.57;94.87;100900.53;4990187;28;20770;-66
2022/09/26 00:08:52;;;;;;;8.23;5.00;;;;;;;10.57;94.27;100896.97;5008452;28;20354;-67
2022/09/26 00:11:22;;;;;;;9.02;5.78;;;;;;;10.60;94.36;100891.03;5007858;28;20033;-66
2022/09/26 00:13:51;;;;;;;8.70;5.47;;;;;;;10.59;94.65;100887.44;5008401;28;20508;-66
2022/09/26 00:16:16;;;;;;;10.00;5.30;;;;;;;10.61;94.44;100882.53;5008593;28;20034;-66
2022/09/26 00:18:42;;;;;;;9.00;6.13;;;;;;;10.65;94.03;100885.69;5008411;28;20030;-66
2022/09/26 00:21:12;;;;;;;8.60;5.55;;;;;;;10.62;94.25;100875.97;5007430;28;20124;-66
2022/09/26 00:23:40;;;;;;;9.65;5.28;;;;;;;10.64;94.27;100867.50;5008778;28;20037;-66
2022/09/26 00:26:06;;;;;;;10.27;5.45;;;;;;;10.66;94.08;100859.88;5007561;28;20420;-66
2022/09/26 00:28:31;;;;;;;9.82;5.65;;;;;;;10.66;94.02;100854.38;5025756;28;20041;-67
2022/09/26 00:31:02;;;;;;;8.90;5.60;;;;;;;10.69;93.89;100853.91;5027972;28;20042;-66
2022/09/26 00:33:27;;;;;;;9.90;5.47;;;;;;;10.69;93.83;100842.91;5027971;28;20169;-67
2022/09/26 00:35:54;;;;;;;12.02;6.07;;;;;;;10.71;93.46;100843.53;5026804;28;20025;-66
2022/09/26 00:38:20;;;;;;;9.15;5.90;;;;;;;10.73;93.46;100841.41;5027422;28;20112;-67
2022/09/26 00:40:46;;;;;;;8.23;5.47;;;;;;;10.73;93.45;100841.41;5025879;28;20144;-66
2022/09/26 00:43:28;;;;;;;10.02;5.72;;;;;;;10.78;93.50;100838.78;5027717;28;20622;-66
2022/09/26 00:45:58;;;;;;;8.98;5.82;;;;;;;10.76;93.32;100834.63;5023687;28;20034;-66
2022/09/26 00:48:24;;;;;;;9.90;5.90;;;;;;;10.78;92.96;100829.72;5026591;28;20056;-67
2022/09/26 00:50:51;;;;;;;9.27;6.15;;;;;;;10.77;93.31;100834.38;5026930;28;20021;-66
2022/09/26 00:53:21;;;;;;;11.80;6.28;;;;;;;10.76;93.13;100821.72;5021064;28;20030;-66
2022/09/26 00:55:58;;;;;;;8.82;5.93;;;;;;;10.77;93.71;100825.28;5027013;28;20025;-66
2022/09/26 00:58:46;;;;;;;10.10;6.60;;;;;;;10.77;93.17;100812.41;5009720;28;20029;-66
2022/09/26 01:01:12;;;;;;;9.15;6.18;;;;;;;10.73;92.93;100805.69;5025884;28;20559;-66
2022/09/26 01:03:42;;;;;;;8.93;6.63;;;;;;;10.72;93.70;100804.00;5027350;28;20504;-66
2022/09/26 01:06:08;;;;;;;10.45;6.85;;;;;;;10.69;93.47;100785.25;5026725;28;20022;-66
2022/09/26 01:08:39;;;;;;;13.13;6.95;;;;;;;10.69;93.19;100784.41;5021118;28;20366;-66
2022/09/26 01:11:06;;;;;;;10.43;6.70;;;;;;;10.67;93.49;100775.56;5010712;28;20133;-66
2022/09/26 01:13:34;;;;;;;9.38;7.50;;;;;;;10.67;93.35;100781.91;5007697;28;20041;-66
2022/09/26 01:15:59;;;;;;;14.27;7.70;;;;;;;10.67;93.39;100770.91;5019296;28;20065;-66
2022/09/26 01:18:25;;;;;;;11.60;7.50;;;;;;;10.69;93.47;100773.41;5027898;28;20060;-66
2022/09/26 01:21:07;;;;;;;12.38;8.45;;;;;;;10.71;93.36;100758.41;5026514;28;20036;-66
2022/09/26 01:23:48;;;;;;;13.70;8.05;;;;;;;10.69;93.50;100762.44;5017897;28;20037;-66
2022/09/26 01:26:25;;;;;;;12.63;8.48;;;;;;;10.68;94.15;100745.13;5026161;28;20079;-66
2022/09/26 01:29:09;;;;;;;9.90;7.65;;;;;;;10.88;93.11;100737.41;5024631;28;20030;-67
2022/09/26 01:32:47;;;;;;;12.88;8.35;;;;;;;10.72;93.57;100729.84;5007456;28;20069;-66
2022/09/26 01:34:43;;;;;;;11.52;7.28;;;;;;;10.73;93.09;100731.50;5007628;28;20045;-66
2022/09/26 01:37:23;;;;;;;10.10;6.90;;;;;;;10.72;92.87;100718.03;5006357;28;20061;-66
2022/09/26 01:40:01;;;;;;;12.15;6.78;;;;;;;10.73;92.93;100715.03;5026596;28;20377;-67
2022/09/26 01:42:45;;;;;;;10.82;6.68;;;;;;;10.71;92.95;100714.44;5012136;28;20034;-66
2022/09/26 01:45:16;;;;;;;10.25;5.97;;;;;;;10.72;92.46;100696.88;5007240;28;20087;-66
2022/09/26 01:47:50;;;;;;;11.32;6.40;;;;;;;10.69;92.58;100697.34;5007445;28;20041;-66
2022/09/26 01:50:42;;;;;;;11.23;6.13;;;;;;;10.73;92.31;100687.56;5007158;28;20661;-66
2022/09/26 01:53:16;;;;;;;13.52;5.80;;;;;;;10.74;92.35;100688.41;5009920;28;20030;-66
2022/09/26 01:55:55;;;;;;;11.35;6.07;;;;;;;10.72;92.21;100688.66;5006662;28;20041;-66
2022/09/26 01:58:27;;;;;;;10.68;5.40;;;;;;;10.72;91.25;100674.91;5007179;28;20453;-66
2022/09/26 02:00:54;;;;;;;10.25;5.10;;;;;;;10.74;91.19;100667.25;5007049;28;20080;-66
2022/09/26 02:03:26;;;;;;;10.13;5.13;;;;;;;10.73;90.89;100665.59;5007136;28;20638;-67
2022/09/26 02:05:57;;;;;;;9.38;5.13;;;;;;;10.75;90.87;100662.63;5006604;28;20030;-66
2022/09/26 02:08:29;;;;;;;10.00;5.03;;;;;;;10.73;91.49;100662.00;5007812;28;20068;-66
2022/09/26 02:11:05;;;;;;;8.68;4.82;;;;;;;10.74;90.80;100656.28;5005642;28;20488;-66
2022/09/26 02:13:35;;;;;;;10.70;4.97;;;;;;;10.76;90.79;100658.81;4990867;28;20030;-66
2022/09/26 02:16:09;;;;;;;10.88;5.22;;;;;;;10.75;89.96;100655.22;5009624;28;20030;-66
2022/09/26 02:18:42;;;;;;;10.18;4.78;;;;;;;10.73;90.35;100648.28;5026286;28;20108;-66
2022/09/26 02:21:19;;;;;;;12.90;4.80;;;;;;;10.75;89.71;100638.75;5029894;28;20017;-66
2022/09/26 02:23:46;;;;;;;9.68;4.95;;;;;;;10.73;89.96;100629.88;5029343;28;20396;-66
2022/09/26 02:26:12;;;;;;;10.02;4.97;;;;;;;10.75;89.74;100626.91;5029447;28;20419;-66
2022/09/26 02:28:37;;;;;;;6.68;4.40;;;;;;;10.75;89.70;100619.50;5030457;28;20033;-66
2022/09/26 02:31:06;;;;;;;8.82;4.32;;;;;;;10.75;89.48;100621.44;5015882;28;20180;-66
2022/09/26 02:33:31;;;;;;;9.43;4.65;;;;;;;10.76;89.43;100620.34;5010649;28;20682;-66
2022/09/26 02:35:57;;;;;;;11.60;5.05;;;;;;;10.76;89.05;100615.69;4992002;28;20126;-66
2022/09/26 02:38:25;;;;;;;9.02;4.65;;;;;;;10.76;88.88;100606.59;5021585;28;20350;-66
2022/09/26 02:41:17;;;;;;;11.38;4.60;;;;;;;10.79;89.04;100600.63;5028990;28;20048;-66
2022/09/26 02:43:49;;;;;;;7.68;4.40;;;;;;;10.75;88.49;100599.44;5011971;28;20030;-66
2022/09/26 02:46:30;;;;;;;11.02;4.47;;;;;;;10.74;88.56;100606.81;5009920;28;20038;-66
2022/09/26 02:49:20;;;;;;;6.72;3.90;;;;;;;10.77;87.95;100597.28;5030202;28;20480;-66
2022/09/26 02:52:00;;;;;;;9.63;3.80;;;;;;;10.75;88.13;100588.47;5029094;28;20026;-66
2022/09/26 02:54:42;;;;;;;8.52;3.58;;;;;;;10.75;87.76;100589.28;5029237;28;20476;-66
2022/09/26 02:57:22;;;;;;;6.95;3.45;;;;;;;10.74;87.71;100581.28;5028345;28;20039;-66
2022/09/26 03:00:19;;;;;;;7.35;4.00;;;;;;;10.77;87.53;100576.16;5030438;28;20026;-66
2022/09/26 03:03:29;;;;;;;10.80;3.85;;;;;;;10.82;86.86;100576.25;5029981;28;20334;-66
2022/09/26 03:05:58;;;;;;;8.73;4.22;;;;;;;10.72;87.46;100576.03;5024462;28;20073;-66
2022/09/26 03:08:30;;;;;;;7.90;3.80;;;;;;;10.73;87.40;100572.19;5026722;28;20033;-66
2022/09/26 03:11:00;;;;;;;8.45;3.60;;;;;;;10.81;87.18;100571.84;5015012;28;20054;-66
2022/09/26 03:13:27;;;;;;;9.70;3.70;;;;;;;10.71;87.36;100568.88;5009737;28;20113;-66
2022/09/26 03:15:55;;;;;;;8.10;3.88;;;;;;;10.66;88.62;100563.25;5009393;28;20049;-66
2022/09/26 03:18:27;;;;;;;9.35;3.70;;;;;;;10.67;88.34;100559.44;5009401;28;20145;-66
2022/09/26 03:20:55;;;;;;;7.32;3.63;;;;;;;10.65;87.66;100545.09;5008801;28;20022;-66
2022/09/26 03:23:25;;;;;;;8.85;3.50;;;;;;;10.64;88.24;100540.66;5023784;28;20056;-66
2022/09/26 03:26:03;;;;;;;9.30;3.33;;;;;;;10.62;88.25;100543.66;5008550;28;20113;-66
2022/09/26 03:28:29;;;;;;;6.70;3.22;;;;;;;10.60;88.07;100531.25;5008860;28;20080;-66
2022/09/26 03:30:54;;;;;;;6.55;3.10;;;;;;;10.59;87.99;100526.81;5008647;28;20030;-66
2022/09/26 03:33:20;;;;;;;8.20;3.50;;;;;;;10.57;88.47;100523.47;5009382;28;20029;-66
2022/09/26 03:35:45;;;;;;;8.70;3.38;;;;;;;10.59;87.34;100521.31;5016231;28;20112;-66
2022/09/26 03:38:10;;;;;;;9.20;3.17;;;;;;;10.58;87.81;100514.16;5017152;28;20112;-66
2022/09/26 03:40:36;;;;;;;11.05;3.20;;;;;;;10.60;86.96;100503.78;5025505;28;20520;-66
2022/09/26 03:43:01;;;;;;;5.78;3.10;;;;;;;10.58;87.77;100506.75;5028509;28;20021;-65
2022/09/26 03:45:27;;;;;;;9.13;3.17;;;;;;;10.60;87.35;100506.53;5026629;28;20140;-66
2022/09/26 03:47:56;;;;;;;8.77;3.20;;;;;;;10.56;89.23;100506.16;5014161;28;20049;-66
2022/09/26 03:50:22;;;;;;;7.35;3.47;;;;;;;10.54;88.46;100504.72;5028173;28;20461;-66
2022/09/26 03:52:47;;;;;;;7.20;3.42;;;;;;;10.52;88.87;100498.66;5028962;28;20036;-66
2022/09/26 03:55:12;;;;;;;9.00;3.90;;;;;;;10.52;88.21;100493.16;5010839;28;20038;-66
2022/09/26 03:57:38;;;;;;;8.18;3.28;;;;;;;10.51;88.12;100494.25;5020228;28;20507;-66
2022/09/26 04:00:06;;;;;;;8.52;3.20;;;;;;;10.52;87.68;100484.91;5027847;28;20654;-66
2022/09/26 04:02:32;;;;;;;;;;;;;;;10.56;87.89;100484.19;5028331;28;20464;-66
2022/09/26 04:04:57;;;;;;;7.00;3.25;;;;;;;10.53;87.26;100475.59;5027926;28;19960;-67
2022/09/26 04:07:22;;;;;;;6.60;3.15;;;;;;;10.51;87.94;100467.59;5010007;28;20025;-66
2022/09/26 04:09:48;;;;;;;6.95;3.20;;;;;;;10.50;87.89;100459.63;5027238;28;20136;-66
2022/09/26 04:12:13;;;;;;;9.70;3.28;;;;;;;10.46;87.71;100464.75;5027443;28;20041;-66
2022/09/26 04:14:38;;;;;;;7.65;3.22;;;;;;;10.49;87.83;100455.19;5027527;28;20033;-66
2022/09/26 04:17:04;;;;;;;8.43;3.70;;;;;;;10.45;87.62;100437.53;5027791;28;20481;-66
2022/09/26 04:19:29;;;;;;;8.60;3.28;;;;;;;10.46;88.02;100445.53;5028134;28;20487;-66
2022/09/26 04:21:54;;;;;;;7.68;3.35;;;;;;;10.45;87.73;100432.06;5026519;28;20415;-66
2022/09/26 04:24:20;;;;;;;9.80;3.58;;;;;;;10.46;87.46;100422.72;5027284;28;20059;-67
2022/09/26 04:26:45;;;;;;;8.63;3.70;;;;;;;10.46;87.61;100422.72;5027963;28;20040;-66
2022/09/26 04:29:12;;;;;;;9.02;3.60;;;;;;;10.44;87.78;100422.97;5027186;28;20033;-66
2022/09/26 04:31:38;;;;;;;8.70;4.10;;;;;;;10.43;87.93;100414.97;5027860;28;20033;-66
2022/09/26 04:34:04;;;;;;;11.50;4.15;;;;;;;10.40;88.23;100405.31;5027598;28;20052;-66
2022/09/26 04:36:29;;;;;;;10.10;3.92;;;;;;;10.42;88.27;100405.06;5027128;28;20053;-66
2022/09/26 04:38:57;;;;;;;10.10;4.28;;;;;;;10.41;88.59;100398.75;5026274;28;20029;-66
2022/09/26 04:41:22;;;;;;;10.50;3.88;;;;;;;10.43;88.29;100395.75;5027267;28;20025;-66
2022/09/26 04:43:48;;;;;;;9.73;4.03;;;;;;;10.44;88.20;100391.91;5028199;28;20037;-66
2022/09/26 04:46:21;;;;;;;8.80;4.07;;;;;;;10.41;89.12;100378.69;5027576;28;20041;-66
2022/09/26 04:48:48;;;;;;;10.20;4.18;;;;;;;10.40;88.32;100372.38;4995226;28;20025;-66
2022/09/26 04:51:15;;;;;;;12.27;4.07;;;;;;;10.38;88.48;100366.28;5007481;28;20084;-66
2022/09/26 04:53:41;;;;;;;13.40;4.72;;;;;;;10.39;88.59;100346.84;5006626;28;20030;-66
2022/09/26 04:56:08;;;;;;;8.40;4.07;;;;;;;10.36;88.99;100347.31;5007301;28;20113;-66
2022/09/26 04:58:36;;;;;;;9.75;4.50;;;;;;;10.36;90.59;100363.78;5007458;28;20026;-66
2022/09/26 05:01:23;;;;;;;9.02;4.20;;;;;;;10.33;89.92;100347.78;5006883;28;20131;-66
2022/09/26 05:03:48;;;;;;;10.35;4.10;;;;;;;10.29;90.87;100335.63;5006389;28;20038;-67
2022/09/26 05:06:15;;;;;;;12.23;4.68;;;;;;;10.28;90.99;100333.94;5006338;28;20044;-66
2022/09/26 05:08:45;;;;;;;11.77;5.43;;;;;;;10.24;91.81;100324.53;5006487;28;20029;-66
2022/09/26 05:11:11;;;;;;;10.15;4.68;;;;;;;10.24;91.63;100320.94;5007340;28;20439;-66
2022/09/26 05:13:37;;;;;;;8.50;4.00;;;;;;;10.20;91.84;100314.25;5007432;28;20427;-66
2022/09/26 05:16:05;;;;;;;9.75;4.43;;;;;;;10.20;92.21;100309.59;5006983;28;20084;-66
2022/09/26 05:18:31;;;;;;;9.67;4.27;;;;;;;10.18;91.84;100309.00;5007663;28;20067;-66
2022/09/26 05:20:57;;;;;;;8.57;4.35;;;;;;;10.17;92.58;100310.06;5006591;28;20651;-66
2022/09/26 05:26:25;;;;;;;8.43;4.50;;;;;;;10.19;92.05;100299.69;5006720;28;20092;-66
2022/09/26 05:29:00;;;;;;;9.93;4.60;;;;;;;10.18;91.73;100300.75;5007126;28;20026;-66
2022/09/26 05:31:28;;;;;;;7.65;4.28;;;;;;;10.14;92.26;100294.94;5006985;28;20022;-66
2022/09/26 05:33:55;;;;;;;10.43;4.25;;;;;;;10.16;92.63;100294.69;5006896;28;20045;-67
2022/09/26 05:36:21;;;;;;;9.02;4.60;;;;;;;10.17;92.26;100299.09;5006555;28;20431;-66
2022/09/26 05:38:46;;;;;;;8.93;4.05;;;;;;;10.18;92.17;100298.00;5025464;28;20038;-66
2022/09/26 05:41:13;;;;;;;9.35;4.50;;;;;;;10.18;92.56;100295.25;5026376;28;20061;-66
2022/09/26 05:43:38;;;;;;;8.77;3.97;;;;;;;10.20;92.55;100298.63;5026203;28;20610;-66
2022/09/26 05:46:06;;;;;;;13.23;4.53;;;;;;;10.20;92.28;100295.03;5024312;28;20025;-66
2022/09/26 05:48:33;;;;;;;12.07;4.53;;;;;;;10.22;91.57;100290.13;5009851;28;20034;-66
2022/09/26 05:51:03;;;;;;;9.68;4.50;;;;;;;10.25;91.55;100290.53;5007620;28;20056;-66
2022/09/26 05:53:29;;;;;;;10.43;4.55;;;;;;;10.23;91.11;100287.13;5010357;28;20029;-66
2022/09/26 05:55:54;;;;;;;13.57;4.82;;;;;;;10.27;91.29;100279.31;5010403;28;20246;-66
2022/09/26 05:58:19;;;;;;;11.88;5.30;;;;;;;10.26;91.67;100278.47;5010639;28;20133;-67
2022/09/26 06:00:48;;;;;;;10.73;4.95;;;;;;;10.27;91.42;100277.38;5010848;28;20029;-66
2022/09/26 06:03:15;;;;;;;11.63;5.00;;;;;;;10.27;91.81;100266.41;5010641;28;20025;-66
2022/09/26 06:05:41;;;;;;;11.15;4.85;;;;;;;10.26;91.84;100262.00;5009791;28;20029;-66
2022/09/26 06:08:08;;;;;;;12.32;5.90;;;;;;;10.28;91.56;100259.00;5009526;28;20057;-66
2022/09/26 06:10:34;;;;;;;12.18;4.75;;;;;;;10.26;91.82;100253.78;5009939;28;20416;-66
2022/09/26 06:13:01;;;;;;;12.27;5.68;;;;;;;10.26;92.68;100245.53;5010437;28;20028;-67
2022/09/26 06:15:27;;;;;;;11.52;5.35;;;;;;;10.26;91.86;100236.47;5009966;28;20018;-67
2022/09/26 06:18:03;;;;;;;10.45;4.72;;;;;;;10.31;92.33;100231.91;5010236;28;20029;-66
2022/09/26 06:20:31;;;;;;;10.90;5.15;;;;;;;10.30;91.87;100224.75;5008455;28;20026;-66
2022/09/26 06:22:57;;;;;;;11.02;5.35;;;;;;;10.29;92.06;100214.88;5008465;28;20018;-66
2022/09/26 06:25:22;;;;;;;12.77;5.60;;;;;;;10.32;92.26;100202.56;5009657;28;20026;-66
2022/09/26 06:27:48;;;;;;;14.93;5.45;;;;;;;10.32;92.07;100195.16;5021768;28;20033;-66
2022/09/26 06:30:15;;;;;;;9.00;4.80;;;;;;;10.38;91.48;100188.66;5030265;28;20025;-66
2022/09/26 06:32:40;;;;;;;12.88;5.03;;;;;;;10.42;91.23;100185.44;5029522;28;20061;-66
2022/09/26 06:35:06;;;;;;;11.68;4.75;;;;;;;10.39;91.33;100187.63;5028744;28;20057;-66
2022/09/26 06:37:32;;;;;;;9.95;4.50;;;;;;;10.45;91.91;100173.97;5029183;28;20362;-66
2022/09/26 06:39:57;;;;;;;13.55;4.93;;;;;;;10.46;91.88;100176.47;5028741;28;20041;-66
2022/09/26 06:42:23;;;;;;;8.10;4.20;;;;;;;10.46;91.68;100175.66;5028962;28;20029;-67
2022/09/26 06:44:48;;;;;;;10.85;4.90;;;;;;;10.49;91.65;100165.00;5028989;28;20025;-67
2022/09/26 06:47:14;;;;;;;10.63;4.85;;;;;;;10.55;91.12;100154.94;5029691;28;20526;-66
2022/09/26 06:49:39;;;;;;;10.38;4.63;;;;;;;10.55;91.18;100154.94;5029745;28;20060;-66
2022/09/26 06:52:04;;;;;;;11.73;4.75;;;;;;;10.56;91.04;100142.88;5028508;28;20056;-66
2022/09/26 06:54:29;;;;;;;8.38;3.90;;;;;;;10.56;90.44;100129.16;5028718;28;20091;-66
2022/09/26 06:56:55;;;;;;;11.88;4.50;;;;;;;10.58;90.54;100129.72;5029120;28;20360;-66
2022/09/26 06:59:21;;;;;;;10.88;4.50;;;;;;;10.62;89.78;100122.66;5011379;28;20037;-67
2022/09/26 07:01:47;;;;;;;10.82;4.53;;;;;;;10.62;90.83;100115.25;5025650;28;20080;-66
2022/09/26 07:04:14;;;;;;;8.38;4.32;;;;;;;10.72;89.86;100117.34;5022431;28;20411;-66
2022/09/26 07:06:41;;;;;;;9.35;3.53;;;;;;;10.74;89.12;100117.91;5028126;28;20038;-66
2022/09/26 07:09:06;;;;;;;8.90;3.83;;;;;;;10.75;89.61;100119.59;5024891;28;20060;-66
2022/09/26 07:11:31;;;;;;;12.43;4.25;;;;;;;10.77;89.18;100103.69;5028348;28;20029;-66
2022/09/26 07:13:59;;;;;;;9.52;3.85;;;;;;;10.82;88.64;100098.28;5010995;28;20140;-66
2022/09/26 07:16:25;;;;;;;8.63;3.77;;;;;;;10.83;88.26;100091.69;5028484;28;20018;-67
2022/09/26 07:18:51;;;;;;;7.65;3.53;;;;;;;10.85;88.32;100091.47;5028818;28;20310;-67
2022/09/26 07:21:16;;;;;;;15.23;4.72;;;;;;;10.84;88.76;100073.28;5027212;28;20610;-67
2022/09/26 07:23:41;;;;;;;9.07;3.80;;;;;;;10.85;89.04;100073.06;5026686;28;20357;-67
2022/09/26 07:26:06;;;;;;;9.32;3.80;;;;;;;10.86;88.72;100069.22;5023415;28;20026;-67
2022/09/26 07:28:32;;;;;;;11.07;3.78;;;;;;;10.88;88.45;100078.03;5027744;28;20395;-67
2022/09/26 07:31:00;;;;;;;10.20;3.83;;;;;;;10.93;88.32;100073.69;5007678;28;20396;-67
2022/09/26 07:33:25;;;;;;;8.35;3.67;;;;;;;10.93;88.22;100077.28;5021214;28;20032;-67
2022/09/26 07:35:51;;;;;;;9.82;3.95;;;;;;;10.88;88.17;100066.22;5014340;28;20165;-67
2022/09/26 07:38:16;;;;;;;10.77;4.10;;;;;;;10.92;88.84;100064.63;5012209;28;20064;-67
2022/09/26 07:40:42;;;;;;;8.68;3.85;;;;;;;10.95;88.69;100074.28;5014693;28;20033;-67
2022/09/26 07:43:09;;;;;;;10.65;3.90;;;;;;;10.97;88.54;100081.19;5008014;28;20828;-67
2022/09/26 07:51:04;;;;;;;9.43;3.92;;;;;;;11.03;89.76;100068.34;5005074;28;20064;-65
2022/09/26 07:53:29;;;;;;;9.27;4.10;;;;;;;11.07;89.70;100061.28;5007146;28;20476;-66
2022/09/26 07:56:09;;;;;;;11.55;4.05;;;;;;;11.11;89.15;100054.19;5009042;28;20034;-66
2022/09/26 07:58:40;;;;;;;7.50;3.88;;;;;;;11.09;89.02;100054.44;5012024;28;20025;-66
2022/09/26 08:01:09;;;;;;;8.02;3.97;;;;;;;11.13;88.63;100049.25;5003486;28;20025;-66
2022/09/26 08:03:34;;;;;;;10.23;4.20;;;;;;;11.18;88.40;100047.41;5008937;28;20029;-66
2022/09/26 08:06:00;;;;;;;9.18;4.03;;;;;;;11.17;88.85;100045.75;5014034;28;20045;-66
2022/09/26 08:08:26;;;;;;;11.27;4.22;;;;;;;11.19;88.58;100042.75;5007273;28;20025;-66
2022/09/26 08:10:51;;;;;;;10.82;4.45;;;;;;;11.23;89.32;100026.59;5005512;28;20080;-66
2022/09/26 08:13:17;;;;;;;11.65;4.05;;;;;;;11.27;89.37;100027.75;5001367;28;20042;-66
2022/09/26 08:15:42;;;;;;;9.75;4.50;;;;;;;11.33;88.41;100022.03;5003822;28;20022;-67
2022/09/26 08:18:07;;;;;;;10.57;4.00;;;;;;;11.36;88.41;100021.53;5013471;28;20500;-67
2022/09/26 08:20:34;;;;;;;10.65;4.13;;;;;;;11.41;88.12;100015.28;5021870;28;20041;-66
2022/09/26 08:23:00;;;;;;;9.70;3.83;;;;;;;11.42;88.08;100008.69;5015807;28;20037;-66
2022/09/26 08:25:25;;;;;;;10.70;4.70;;;;;;;11.43;88.56;100013.09;5027688;28;20033;-67
2022/09/26 08:27:52;;;;;;;12.07;4.72;;;;;;;11.46;89.02;100009.00;5027425;28;20033;-67
2022/09/26 08:30:18;;;;;;;7.80;3.78;;;;;;;11.43;88.66;100004.84;5007183;28;20042;-67
2022/09/26 08:32:52;;;;;;;12.88;4.18;;;;;;;11.40;89.12;100017.19;5027405;28;20030;-66
2022/09/26 08:35:17;;;;;;;9.20;4.20;;;;;;;11.37;88.96;100014.13;5027470;28;20148;-67
2022/09/26 08:37:42;;;;;;;10.70;4.47;;;;;;;11.37;88.54;100017.69;5027049;28;20749;-66
2022/09/26 08:40:08;;;;;;;11.00;4.28;;;;;;;11.35;89.59;100011.66;5027074;28;20032;-67
2022/09/26 08:42:56;;;;;;;12.02;4.57;;;;;;;11.41;89.47;100018.84;5027789;28;20364;-66
2022/09/26 08:48:37;;;;;;;9.27;4.35;;;;;;;11.52;88.74;100007.97;5027461;28;20067;-67
2022/09/26 08:51:34;;;;;;;10.35;4.00;;;;;;;11.55;88.72;100004.69;5019804;28;20033;-67
2022/09/26 08:54:11;;;;;;;13.95;4.95;;;;;;;11.54;89.71;100003.03;5007135;28;20079;-67
2022/09/26 08:56:42;;;;;;;9.55;4.43;;;;;;;11.56;88.92;100001.72;5006858;28;20029;-66
2022/09/26 08:59:16;;;;;;;9.88;4.20;;;;;;;11.55;89.65;100002.78;5014219;28;20033;-66
2022/09/26 09:01:44;;;;;;;12.50;4.80;;;;;;;11.60;89.09;100002.81;5021103;28;20040;-66
2022/09/26 09:04:13;;;;;;;11.77;4.87;;;;;;;11.63;89.99;99996.00;5026554;28;20112;-66
2022/09/26 09:06:38;;;;;;;13.60;4.55;;;;;;;11.63;90.99;100004.25;5027028;28;20718;-66
2022/09/26 09:09:04;;;;;;;10.48;5.25;;;;;;;11.59;91.87;99990.19;5025215;28;20174;-66
2022/09/26 09:11:59;;;;;;;9.57;4.72;;;;;;;11.65;91.27;99997.38;5016148;28;20523;-66
2022/09/26 09:15:02;;;;;;;11.63;5.60;;;;;;;11.50;93.86;99983.47;5012011;28;20115;-66
2022/09/26 09:17:46;;;;;;;15.30;5.30;;;;;;;11.47;93.20;99978.50;5013416;28;20042;-66
2022/09/26 09:20:24;;;;;;;13.45;5.80;;;;;;;11.42;95.35;99978.44;5005621;28;20057;-66
2022/09/26 09:23:07;;;;;;;16.48;5.40;;;;;;;11.39;95.52;99965.19;5002896;28;20030;-67
2022/09/26 09:26:10;;;;;;;14.15;5.10;;;;;;;11.34;96.52;99963.22;5012599;28;20037;-66
2022/09/26 09:28:48;;;;;;;11.10;5.05;;;;;;;11.36;97.20;99963.81;5018367;28;20033;-66
2022/09/26 09:31:14;;;;;;;9.57;5.32;;;;;;;11.39;96.46;99956.94;5019771;28;20503;-65
2022/09/26 09:33:48;;;;;;;12.70;5.93;;;;;;;11.42;99.32;99956.44;5018838;28;20476;-66
2022/09/26 09:36:19;;;;;;;14.88;7.20;;;;;;;11.48;97.51;99947.16;5019698;28;20022;-66
2022/09/26 09:38:48;;;;;;;19.20;7.20;;;;;;;11.55;98.01;99936.78;5019541;28;20120;-66
2022/09/26 09:41:17;;;;;;;9.68;5.15;;;;;;;11.61;96.35;99934.94;5026030;28;20042;-66
2022/09/26 09:43:57;;;;;;;14.10;5.60;;;;;;;11.57;97.83;99923.59;5027090;28;20045;-66
2022/09/26 09:46:31;;;;;;;16.38;5.65;;;;;;;11.61;97.66;99922.00;5010049;28;20069;-66
2022/09/26 09:49:06;;;;;;;15.95;5.82;;;;;;;11.60;97.79;99919.50;5016214;28;20036;-67
2022/09/26 09:52:04;;;;;;;16.38;5.80;;;;;;;11.66;98.53;99911.06;5019624;28;20045;-66
2022/09/26 09:54:32;;;;;;;;;;;;;;;11.75;96.52;99908.63;5020782;28;20030;-66
2022/09/26 09:57:47;;;;;;;12.63;5.57;;;;;;;11.74;97.70;99901.47;5021887;28;19917;-66
2022/09/26 10:00:21;;;;;;;12.32;5.43;;;;;;;11.70;98.09;99903.91;4988281;28;20045;-66
2022/09/26 10:03:01;;;;;;;12.57;5.47;;;;;;;11.77;98.82;99894.63;5031431;28;20026;-66
2022/09/26 10:05:43;;;;;;;15.65;5.55;;;;;;;11.81;97.95;99891.09;5030326;28;20628;-67
2022/09/26 10:08:24;;;;;;;13.07;5.32;;;;;;;11.74;98.42;99890.47;5014996;28;20724;-66
2022/09/26 10:11:29;;;;;;;10.77;5.53;;;;;;;11.70;98.36;99884.66;5027505;28;20377;-67
2022/09/26 10:14:00;;;;;;;13.90;6.10;;;;;;;11.72;98.60;99876.16;5027690;28;20025;-66
2022/09/26 10:16:25;;;;;;;14.13;6.60;;;;;;;11.75;98.51;99880.28;5029519;28;20026;-66
2022/09/26 10:18:54;;;;;;;13.50;5.82;;;;;;;11.76;98.53;99866.31;5026231;28;20033;-66
2022/09/26 10:21:20;;;;;;;12.77;5.70;;;;;;;11.85;99.50;99875.75;5013834;28;20538;-66
2022/09/26 10:23:49;;;;;;;12.10;6.07;;;;;;;11.89;98.95;99863.13;5013670;28;20034;-66
2022/09/26 10:26:21;;;;;;;13.88;5.75;;;;;;;11.86;98.99;99863.66;5009761;28;20034;-66
2022/09/26 10:28:54;;;;;;;11.73;5.38;;;;;;;11.86;98.40;99854.56;5008952;28;20033;-66
2022/09/26 10:31:36;;;;;;;12.48;5.47;;;;;;;11.80;98.82;99856.41;5010671;28;20417;-66
2022/09/26 10:34:07;;;;;;;11.15;5.40;;;;;;;11.76;99.27;99859.94;5005046;28;20041;-66
2022/09/26 10:36:39;;;;;;;12.00;5.88;;;;;;;11.81;99.13;99858.09;5017692;28;20037;-66
2022/09/26 10:42:03;;;;;;;11.30;5.07;;;;;;;11.63;99.63;99842.81;5016601;28;20104;-67
2022/09/26 10:44:33;;;;;;;10.27;6.00;;;;;;;11.63;100.00;99840.06;5008269;28;20020;-66
2022/09/26 10:47:07;;;;;;;15.35;6.30;;;;;;;11.56;100.00;99833.97;5012847;28;20034;-66
2022/09/26 10:49:47;;;;;;;11.23;5.60;;;;;;;11.61;100.00;99841.41;5017525;28;20746;-66
2022/09/26 10:52:22;;;;;;;11.93;5.65;;;;;;;11.58;100.00;99830.94;5014911;28;20033;-66
2022/09/26 10:55:12;;;;;;;9.70;5.47;;;;;;;11.50;100.00;99825.91;5025772;28;20361;-66
2022/09/26 10:57:51;;;;;;;12.05;5.22;;;;;;;11.50;100.00;99831.41;5029339;28;20029;-66
2022/09/26 11:00:36;;;;;;;12.50;5.50;;;;;;;11.50;100.00;99817.66;5029969;28;20507;-65
2022/09/26 11:03:07;;;;;;;15.82;5.97;;;;;;;11.40;100.00;99824.75;5012688;28;20041;-66
2022/09/26 11:05:56;;;;;;;10.68;5.88;;;;;;;11.42;100.00;99821.72;5009420;28;20061;-66
2022/09/26 11:08:33;;;;;;;9.65;5.28;;;;;;;11.48;100.00;99817.94;5009163;28;20030;-66
2022/09/26 11:11:05;;;;;;;13.85;5.63;;;;;;;11.47;100.00;99823.69;5009349;28;20056;-66
2022/09/26 11:13:46;;;;;;;12.60;5.63;;;;;;;11.52;100.00;99824.56;5009547;28;20033;-65
2022/09/26 11:16:14;;;;;;;12.07;5.63;;;;;;;11.50;100.00;99823.16;5010281;28;20034;-66
2022/09/26 11:18:48;;;;;;;11.40;5.40;;;;;;;11.42;100.00;99816.22;5010007;28;20072;-66
2022/09/26 11:21:21;;;;;;;10.38;5.65;;;;;;;11.42;100.00;99819.81;5009361;28;20568;-66
2022/09/26 11:24:01;;;;;;;10.23;5.30;;;;;;;11.43;100.00;99807.72;5026049;28;20116;-66
2022/09/26 11:26:37;;;;;;;14.43;5.93;;;;;;;11.39;100.00;99812.06;5021035;28;20041;-66
2022/09/26 11:29:17;;;;;;;10.45;5.45;;;;;;;11.39;100.00;99816.75;5027922;28;20029;-66
2022/09/26 11:31:44;;;;;;;10.18;5.00;;;;;;;11.39;100.00;99798.31;5011128;28;20033;-66
2022/09/26 11:34:16;;;;;;;9.90;5.43;;;;;;;11.41;100.00;99798.91;5009387;28;20030;-65
2022/09/26 11:37:12;;;;;;;13.15;5.18;;;;;;;11.38;100.00;99807.66;5008926;28;20065;-66
2022/09/26 11:39:57;;;;;;;9.85;4.70;;;;;;;11.42;100.00;99802.47;5009429;28;20061;-66
2022/09/26 11:42:53;;;;;;;10.68;5.00;;;;;;;11.43;100.00;99810.47;5015258;28;20468;-67
2022/09/26 11:45:35;;;;;;;9.65;4.70;;;;;;;11.41;100.00;99796.16;5018324;28;20044;-67
2022/09/26 11:48:12;;;;;;;10.90;5.35;;;;;;;11.38;100.00;99793.91;5006408;28;20376;-67
2022/09/26 11:51:06;;;;;;;8.82;4.63;;;;;;;11.40;100.00;99794.50;5008321;28;20041;-67
2022/09/26 11:53:35;;;;;;;9.80;5.10;;;;;;;11.40;100.00;99789.00;5015583;28;20440;-66
2022/09/26 11:56:24;;;;;;;7.47;4.03;;;;;;;11.41;100.00;99798.09;5009162;28;20014;-67